Terminal Aerodrome Forecast
Issued by NWS

Home | Current Version | Previous Version | Text Only | Print | Product List | Glossary Off
Versions: 1 2 3 4 5 6 7 8 9 10 11 12

000
FTUS43 KBIS 192300
TAFDIK
TAF
KDIK 192330Z 2000/2024 VRB03KT P6SM SKC
     FM200900 18006KT P6SM FEW250
     FM201700 16011KT P6SM FEW250=

USA.gov is the U.S. government's official web portal to all federal, state and local government web resources and services.